createdAt,value
2023-07-19T00:01:27.711Z,100109.99
2023-07-19T00:03:21.153Z,100109.80
2023-07-19T00:05:12.449Z,100106.67
2023-07-19T00:07:04.207Z,100101.56
2023-07-19T00:08:56.424Z,100097.80
2023-07-19T00:10:47.786Z,100100.21
2023-07-19T00:12:54.417Z,100100.80
2023-07-19T00:14:47.600Z,100103.60
2023-07-19T00:16:38.890Z,100108.15
2023-07-19T00:18:30.050Z,100103.14
2023-07-19T00:20:21.630Z,100103.33
2023-07-19T00:22:13.079Z,100103.94
2023-07-19T00:24:04.641Z,100101.02
2023-07-19T00:25:55.896Z,100102.73
2023-07-19T00:27:49.868Z,100098.71
2023-07-19T00:29:41.409Z,100097.55
2023-07-19T00:31:33.344Z,100098.92
2023-07-19T00:33:25.455Z,100098.48
2023-07-19T00:35:17.877Z,100096.67
2023-07-19T00:37:09.513Z,100096.27
2023-07-19T00:39:01.082Z,100094.95
2023-07-19T00:40:52.938Z,100100.83
2023-07-19T00:42:43.985Z,100097.80
2023-07-19T00:44:35.156Z,100090.56
2023-07-19T00:46:27.805Z,100082.61
2023-07-19T00:48:19.337Z,100078.40
2023-07-19T00:50:10.834Z,100073.00
2023-07-19T00:52:03.490Z,100069.86
2023-07-19T00:53:55.806Z,100074.73
2023-07-19T00:55:51.068Z,100071.77
2023-07-19T00:57:42.877Z,100068.58
2023-07-19T00:59:34.728Z,100064.63
2023-07-19T01:01:27.310Z,100061.01
2023-07-19T01:03:20.500Z,100055.13
2023-07-19T01:05:12.413Z,100061.41
2023-07-19T01:07:04.581Z,100064.21
2023-07-19T01:08:56.181Z,100066.91
2023-07-19T01:10:47.979Z,100063.98
2023-07-19T01:12:39.966Z,100062.52
2023-07-19T01:14:31.390Z,100061.43
2023-07-19T01:16:23.336Z,100063.17
2023-07-19T01:18:14.514Z,100063.38
2023-07-19T01:20:09.301Z,100063.27
2023-07-19T01:22:00.615Z,100062.15
2023-07-19T01:23:52.436Z,100062.96
2023-07-19T01:25:44.191Z,100060.09
2023-07-19T01:27:35.486Z,100059.73
2023-07-19T01:29:27.267Z,100054.44
2023-07-19T01:31:19.196Z,100054.33
2023-07-19T01:33:20.448Z,100046.69
2023-07-19T01:35:20.004Z,100052.40
2023-07-19T01:37:11.394Z,100051.95
2023-07-19T01:39:02.961Z,100045.26
2023-07-19T01:40:54.540Z,100044.90
2023-07-19T01:42:46.240Z,100046.02
2023-07-19T01:44:37.804Z,100043.21
2023-07-19T01:46:29.679Z,100044.92
2023-07-19T01:48:20.975Z,100046.70
2023-07-19T01:50:12.210Z,100048.30
2023-07-19T01:52:03.749Z,100049.13
2023-07-19T01:53:55.438Z,100050.44
2023-07-19T01:55:46.958Z,100052.46
2023-07-19T01:57:38.611Z,100051.05
2023-07-19T01:59:29.819Z,100051.36
2023-07-19T02:01:21.506Z,100049.83
2023-07-19T02:03:13.284Z,100049.04
2023-07-19T02:05:05.331Z,100042.73
2023-07-19T02:06:57.143Z,100039.91
2023-07-19T02:08:48.544Z,100047.26
2023-07-19T02:10:39.711Z,100043.50
2023-07-19T02:12:30.957Z,100040.14
2023-07-19T02:14:22.472Z,100044.23
2023-07-19T02:16:13.835Z,100048.29
2023-07-19T02:18:05.622Z,100044.15
2023-07-19T02:19:57.229Z,100049.10
2023-07-19T02:21:48.714Z,100043.40
2023-07-19T02:23:40.557Z,100042.37
2023-07-19T02:25:31.629Z,100040.78
2023-07-19T02:27:22.969Z,100045.01
2023-07-19T02:29:14.609Z,100041.20
2023-07-19T02:31:05.851Z,100041.30
2023-07-19T02:32:57.610Z,100039.91
2023-07-19T02:34:49.181Z,100037.98
2023-07-19T02:36:40.986Z,100042.20
2023-07-19T02:38:32.693Z,100039.48
2023-07-19T02:40:24.387Z,100038.43
2023-07-19T02:42:15.958Z,100041.73
2023-07-19T02:44:07.243Z,100039.70
2023-07-19T02:45:58.392Z,100036.67
2023-07-19T02:47:49.833Z,100040.55
2023-07-19T02:49:42.534Z,100037.60
2023-07-19T02:51:34.133Z,100038.14
2023-07-19T02:53:25.757Z,100039.39
2023-07-19T02:55:17.479Z,100039.55
2023-07-19T02:57:09.011Z,100035.78
2023-07-19T02:59:00.177Z,100036.20
2023-07-19T03:00:54.577Z,100033.91
2023-07-19T03:02:48.006Z,100034.81
2023-07-19T03:04:39.654Z,100037.23
2023-07-19T03:06:31.085Z,100038.50
2023-07-19T03:08:22.707Z,100040.52
2023-07-19T03:10:14.044Z,100039.66
2023-07-19T03:12:05.786Z,100037.22
2023-07-19T03:13:57.079Z,100034.02
2023-07-19T03:15:48.762Z,100034.11
2023-07-19T03:17:40.553Z,100033.90
2023-07-19T03:19:32.317Z,100032.19
2023-07-19T03:21:24.126Z,100029.33
2023-07-19T03:23:15.700Z,100030.70
2023-07-19T03:25:07.704Z,100033.49
2023-07-19T03:26:58.988Z,100031.71
2023-07-19T03:28:50.732Z,100036.05
2023-07-19T03:30:42.291Z,100036.50
2023-07-19T03:32:33.951Z,100032.75
2023-07-19T03:34:25.251Z,100037.38
2023-07-19T03:36:16.717Z,100034.35
2023-07-19T03:38:08.109Z,100037.56
2023-07-19T03:39:59.619Z,100035.05
2023-07-19T03:41:51.313Z,100033.06
2023-07-19T03:43:42.462Z,100034.52
2023-07-19T03:45:34.009Z,100029.98
2023-07-19T03:47:26.449Z,100032.60
2023-07-19T03:49:18.116Z,100030.83
2023-07-19T03:51:09.545Z,100026.61
2023-07-19T03:53:00.925Z,100029.52
2023-07-19T03:54:55.030Z,100029.08
2023-07-19T03:56:46.386Z,100028.09
2023-07-19T03:58:40.547Z,100028.80
2023-07-19T04:00:31.747Z,100029.08
2023-07-19T04:02:23.613Z,100030.20
2023-07-19T04:04:15.089Z,100024.58
2023-07-19T04:06:06.510Z,100023.52
2023-07-19T04:08:02.316Z,100018.05
2023-07-19T04:09:53.745Z,100020.90
2023-07-19T04:11:45.400Z,100020.71
2023-07-19T04:13:37.039Z,100021.59
2023-07-19T04:15:28.136Z,100027.29
2023-07-19T04:17:19.815Z,100028.86
2023-07-19T04:19:11.261Z,100030.20
2023-07-19T04:21:03.779Z,100029.75
2023-07-19T04:22:55.121Z,100029.27
2023-07-19T04:24:47.236Z,100034.54
2023-07-19T04:26:38.374Z,100035.21
2023-07-19T04:28:29.828Z,100035.44
2023-07-19T04:30:21.248Z,100036.89
2023-07-19T04:32:12.406Z,100036.08
2023-07-19T04:34:03.932Z,100037.04
2023-07-19T04:35:55.153Z,100034.10
2023-07-19T04:37:46.303Z,100033.86
2023-07-19T04:39:37.960Z,100032.44
2023-07-19T04:41:29.419Z,100032.83
2023-07-19T04:43:20.769Z,100031.91
2023-07-19T04:45:13.293Z,100030.21
2023-07-19T04:47:05.705Z,100028.59
2023-07-19T04:48:57.076Z,100025.14
2023-07-19T04:50:53.532Z,100024.13
2023-07-19T04:52:47.702Z,100023.40
2023-07-19T04:54:38.969Z,100023.98
2023-07-19T04:56:30.543Z,100026.82
2023-07-19T04:58:21.930Z,100026.48
2023-07-19T05:00:17.255Z,100027.08
2023-07-19T05:02:10.633Z,100030.27
2023-07-19T05:04:02.230Z,100024.46
2023-07-19T05:05:55.782Z,100023.16
2023-07-19T05:07:48.546Z,100021.48
2023-07-19T05:09:45.024Z,100016.52
2023-07-19T05:11:37.644Z,100018.35
2023-07-19T05:13:29.153Z,100022.58
2023-07-19T05:15:20.508Z,100026.14
2023-07-19T05:17:11.685Z,100024.17
2023-07-19T05:19:03.975Z,100024.25
2023-07-19T05:20:55.810Z,100022.51
2023-07-19T05:22:47.574Z,100020.88
2023-07-19T05:24:39.490Z,100020.65
2023-07-19T05:26:31.584Z,100018.71
2023-07-19T05:28:23.234Z,100014.83
2023-07-19T05:30:14.926Z,100015.95
2023-07-19T05:32:07.280Z,100017.41
2023-07-19T05:34:01.212Z,100017.65
2023-07-19T05:35:52.444Z,100014.66
2023-07-19T05:37:44.034Z,100009.88
2023-07-19T05:39:35.500Z,100008.02
2023-07-19T05:41:27.082Z,100005.70
2023-07-19T05:43:19.192Z,100006.24
2023-07-19T05:45:10.803Z,100009.55
2023-07-19T05:47:02.368Z,100005.25
2023-07-19T05:48:53.618Z,100000.34
2023-07-19T05:50:45.296Z,99996.77
2023-07-19T05:52:37.561Z,99996.70
2023-07-19T05:54:31.190Z,100000.16
2023-07-19T05:56:23.152Z,100000.02
2023-07-19T05:58:14.378Z,99994.88
2023-07-19T06:00:20.531Z,99988.60
2023-07-19T06:02:12.732Z,99991.38
2023-07-19T06:04:04.479Z,99989.61
2023-07-19T06:05:55.869Z,99989.95
2023-07-19T06:07:47.976Z,99986.80
2023-07-19T06:09:39.428Z,99984.81
2023-07-19T06:11:30.681Z,99983.61
2023-07-19T06:13:22.397Z,99985.80
2023-07-19T06:15:15.440Z,99986.02
2023-07-19T06:17:07.507Z,99987.15
2023-07-19T06:18:58.816Z,99986.06
2023-07-19T06:20:52.105Z,99985.94
2023-07-19T06:22:45.198Z,99981.27
2023-07-19T06:24:36.857Z,99980.83
2023-07-19T06:26:28.430Z,99980.73
2023-07-19T06:28:19.878Z,99979.05
2023-07-19T06:30:12.813Z,99977.07
2023-07-19T06:32:05.803Z,99977.15
2023-07-19T06:33:57.758Z,99978.29
2023-07-19T06:35:49.191Z,99977.84
2023-07-19T06:37:40.425Z,99976.45
2023-07-19T06:39:32.129Z,99978.14
2023-07-19T06:41:23.688Z,99976.00
2023-07-19T06:43:15.378Z,99972.92
2023-07-19T06:45:07.102Z,99968.48
2023-07-19T06:47:01.441Z,99968.97
2023-07-19T06:48:52.958Z,99966.83
2023-07-19T06:50:44.375Z,99965.81
2023-07-19T06:52:35.832Z,99965.52
2023-07-19T06:54:26.980Z,99966.23
2023-07-19T06:56:18.285Z,99964.44
2023-07-19T06:58:09.912Z,99964.48
2023-07-19T07:00:01.587Z,99964.84
2023-07-19T07:01:53.084Z,99959.12
2023-07-19T07:03:44.367Z,99956.73
2023-07-19T07:05:35.952Z,99953.15
2023-07-19T07:07:27.265Z,99951.10
2023-07-19T07:09:19.102Z,99952.21
2023-07-19T07:11:10.693Z,99951.77
2023-07-19T07:13:02.169Z,99946.55
2023-07-19T07:14:53.495Z,99948.23
2023-07-19T07:16:45.018Z,99944.43
2023-07-19T07:18:36.379Z,99948.41
2023-07-19T07:20:28.096Z,99952.36
2023-07-19T07:22:20.418Z,99949.16
2023-07-19T07:24:12.226Z,99945.91
2023-07-19T07:26:04.417Z,99943.27
2023-07-19T07:27:55.857Z,99945.80
2023-07-19T07:29:47.507Z,99944.41
2023-07-19T07:31:39.362Z,99946.30
2023-07-19T07:33:31.136Z,99939.75
2023-07-19T07:35:22.791Z,99939.48
2023-07-19T07:37:13.997Z,99934.92
2023-07-19T07:39:06.775Z,99939.54
2023-07-19T07:41:02.103Z,99940.83
2023-07-19T07:42:53.780Z,99940.70
2023-07-19T07:44:47.150Z,99941.95
2023-07-19T07:46:39.605Z,99944.58
2023-07-19T07:48:31.887Z,99943.41
2023-07-19T07:50:23.762Z,99944.59
2023-07-19T07:52:16.964Z,99941.33
2023-07-19T07:54:08.626Z,99940.02
2023-07-19T07:56:00.072Z,99940.65
2023-07-19T07:57:51.337Z,99934.84
2023-07-19T07:59:43.084Z,99936.41
2023-07-19T08:01:34.906Z,99933.70
2023-07-19T08:03:26.068Z,99933.47
2023-07-19T08:05:17.317Z,99931.04
2023-07-19T08:07:08.461Z,99929.61
2023-07-19T08:08:59.889Z,99930.94
2023-07-19T08:10:51.548Z,99931.64
2023-07-19T08:12:43.176Z,99930.84
2023-07-19T08:14:34.709Z,99929.48
2023-07-19T08:16:28.074Z,99932.73
2023-07-19T08:18:19.823Z,99929.70
2023-07-19T08:20:11.793Z,99927.84
2023-07-19T08:22:05.297Z,99929.54
2023-07-19T08:23:57.097Z,99931.59
2023-07-19T08:25:48.566Z,99925.03
2023-07-19T08:27:40.477Z,99921.27
2023-07-19T08:29:31.974Z,99916.95
2023-07-19T08:31:24.862Z,99914.89
2023-07-19T08:33:16.777Z,99916.06
2023-07-19T08:35:08.856Z,99908.71
2023-07-19T08:37:01.177Z,99906.52
2023-07-19T08:38:52.882Z,99903.86
2023-07-19T08:40:50.946Z,99904.90
2023-07-19T08:42:43.514Z,99904.57
2023-07-19T08:44:35.171Z,99902.42
2023-07-19T08:46:26.802Z,99895.59
2023-07-19T08:48:18.081Z,99894.47
2023-07-19T08:50:11.822Z,99895.19
2023-07-19T08:52:03.910Z,99891.13
2023-07-19T08:53:55.226Z,99892.18
2023-07-19T08:55:46.449Z,99889.98
2023-07-19T08:57:44.372Z,99884.36
2023-07-19T08:59:35.776Z,99882.57
2023-07-19T09:01:27.368Z,99881.88
2023-07-19T09:03:19.112Z,99883.05
2023-07-19T09:05:14.183Z,99880.21
2023-07-19T09:07:05.978Z,99878.83
2023-07-19T09:08:57.387Z,99873.75
2023-07-19T09:10:48.555Z,99870.14
2023-07-19T09:12:41.997Z,99871.83
2023-07-19T09:14:37.577Z,99871.44
2023-07-19T09:16:33.590Z,99870.44
2023-07-19T09:18:30.363Z,99874.84
2023-07-19T09:20:22.069Z,99865.49
2023-07-19T09:22:16.026Z,99859.84
2023-07-19T09:24:08.424Z,99857.86
2023-07-19T09:25:59.585Z,99853.23
2023-07-19T09:27:52.885Z,99851.63
2023-07-19T09:29:44.212Z,99850.73
2023-07-19T09:31:50.694Z,99853.63
2023-07-19T09:33:42.293Z,99856.03
2023-07-19T09:35:34.462Z,99851.48
2023-07-19T09:37:26.310Z,99846.13
2023-07-19T09:39:18.838Z,99845.00
2023-07-19T09:41:12.154Z,99844.23
2023-07-19T09:43:04.288Z,99840.91
2023-07-19T09:44:55.584Z,99837.56
2023-07-19T09:46:47.518Z,99837.17
2023-07-19T09:48:38.948Z,99838.45
2023-07-19T09:50:30.726Z,99836.30
2023-07-19T09:52:25.623Z,99823.77
2023-07-19T09:54:17.122Z,99815.87
2023-07-19T09:56:10.226Z,99819.55
2023-07-19T09:58:03.124Z,99816.92
2023-07-19T09:59:55.313Z,99818.80
2023-07-19T10:01:46.961Z,99812.91
2023-07-19T10:03:38.384Z,99814.67
2023-07-19T10:05:30.491Z,99814.08
2023-07-19T10:07:25.885Z,99812.17
2023-07-19T10:09:31.499Z,99812.75
2023-07-19T10:11:24.437Z,99812.59
2023-07-19T10:13:16.063Z,99811.61
2023-07-19T10:15:08.759Z,99807.02
2023-07-19T10:17:01.171Z,99807.27
2023-07-19T10:19:28.118Z,99805.86
2023-07-19T10:21:20.337Z,99807.83
2023-07-19T10:23:14.867Z,99801.83
2023-07-19T10:25:07.047Z,99801.77
2023-07-19T10:27:00.767Z,99796.19
2023-07-19T10:29:02.146Z,99794.56
2023-07-19T10:30:54.906Z,99791.14
2023-07-19T10:32:50.878Z,99789.35
2023-07-19T10:34:45.839Z,99790.40
2023-07-19T10:36:45.805Z,99795.88
2023-07-19T10:38:40.525Z,99784.89
2023-07-19T10:40:32.064Z,99789.52
2023-07-19T10:42:23.540Z,99784.45
2023-07-19T10:44:15.103Z,99786.45
2023-07-19T10:46:07.349Z,99784.11
2023-07-19T10:48:00.496Z,99783.27
2023-07-19T10:49:53.656Z,99781.23
2023-07-19T10:51:55.665Z,99774.45
2023-07-19T10:53:49.558Z,99777.71
2023-07-19T10:55:53.282Z,99772.11
2023-07-19T10:57:45.085Z,99765.88
2023-07-19T10:59:36.330Z,99765.09
2023-07-19T11:01:30.474Z,99769.92
2023-07-19T11:03:25.314Z,99767.52
2023-07-19T11:05:17.146Z,99763.52
2023-07-19T11:07:08.712Z,99761.77
2023-07-19T11:09:10.929Z,99756.98
2023-07-19T11:11:02.633Z,99752.58
2023-07-19T11:12:54.283Z,99751.28
2023-07-19T11:14:57.389Z,99749.73
2023-07-19T11:16:48.580Z,99747.60
2023-07-19T11:18:41.281Z,99744.16
2023-07-19T11:20:32.904Z,99747.07
2023-07-19T11:22:25.857Z,99748.48
2023-07-19T11:24:17.430Z,99743.26
2023-07-19T11:26:10.322Z,99743.06
2023-07-19T11:28:02.072Z,99737.83
2023-07-19T11:29:56.059Z,99732.20
2023-07-19T11:31:47.429Z,99726.77
2023-07-19T11:33:40.719Z,99726.16
2023-07-19T11:35:32.145Z,99727.74
2023-07-19T11:37:30.906Z,99727.17
2023-07-19T11:39:24.746Z,99729.40
2023-07-19T11:41:19.723Z,99728.40
2023-07-19T11:43:11.520Z,99726.61
2023-07-19T11:45:12.705Z,99722.06
2023-07-19T11:47:04.558Z,99724.69
2023-07-19T11:48:56.095Z,99718.05
2023-07-19T11:50:49.271Z,99720.79
2023-07-19T11:52:45.061Z,99718.46
2023-07-19T11:54:36.623Z,99716.51
2023-07-19T11:56:30.273Z,99712.29
2023-07-19T11:58:31.511Z,99705.72
2023-07-19T12:00:32.660Z,99707.28
2023-07-19T12:02:25.428Z,99706.86
2023-07-19T12:06:10.395Z,99714.12
2023-07-19T12:08:02.274Z,99710.40
2023-07-19T12:09:53.324Z,99713.02
2023-07-19T12:11:46.712Z,99704.56
2023-07-19T12:13:38.320Z,99701.70
2023-07-19T12:15:29.914Z,99699.31
2023-07-19T12:17:21.643Z,99699.45
2023-07-19T12:19:13.133Z,99703.16
2023-07-19T12:21:07.514Z,99703.41
2023-07-19T12:22:59.045Z,99697.64
2023-07-19T12:24:50.655Z,99691.84
2023-07-19T12:26:42.502Z,99686.13
2023-07-19T12:28:34.405Z,99686.89
2023-07-19T12:30:26.860Z,99689.64
2023-07-19T12:32:18.201Z,99691.80
2023-07-19T12:34:09.658Z,99692.14
2023-07-19T12:36:01.042Z,99686.17
2023-07-19T12:37:52.741Z,99685.70
2023-07-19T12:39:44.950Z,99687.23
2023-07-19T12:41:38.907Z,99688.92
2023-07-19T12:43:31.064Z,99685.63
2023-07-19T12:45:22.163Z,99670.83
2023-07-19T12:47:13.324Z,99669.21
2023-07-19T12:49:04.447Z,99665.45
2023-07-19T12:50:55.879Z,99667.85
2023-07-19T12:52:52.437Z,99670.47
2023-07-19T12:54:44.329Z,99680.56
2023-07-19T12:56:36.180Z,99678.72
2023-07-19T12:58:27.500Z,99671.42
2023-07-19T13:00:19.345Z,99670.61
2023-07-19T13:02:11.035Z,99667.61
2023-07-19T13:04:03.996Z,99667.86
2023-07-19T13:05:55.450Z,99667.13
2023-07-19T13:07:47.086Z,99661.29
2023-07-19T13:09:38.544Z,99658.71
2023-07-19T13:11:32.584Z,99651.02
2023-07-19T13:13:24.172Z,99661.89
2023-07-19T13:15:15.461Z,99662.37
2023-07-19T13:17:21.338Z,99658.61
2023-07-19T13:19:14.404Z,99656.01
2023-07-19T13:21:05.957Z,99652.27
2023-07-19T13:22:57.546Z,99655.84
2023-07-19T13:24:48.889Z,99650.55
2023-07-19T13:26:40.794Z,99645.59
2023-07-19T13:28:32.364Z,99646.58
2023-07-19T13:30:25.108Z,99642.59
2023-07-19T13:32:16.622Z,99639.61
2023-07-19T13:34:08.018Z,99639.89
2023-07-19T13:35:59.988Z,99637.55
2023-07-19T13:39:46.131Z,99633.09
2023-07-19T13:41:37.596Z,99634.70
2023-07-19T13:43:29.385Z,99631.64
2023-07-19T13:45:20.995Z,99633.54
2023-07-19T13:47:12.348Z,99633.54
2023-07-19T13:49:04.454Z,99635.04
2023-07-19T13:50:56.755Z,99634.51
2023-07-19T13:52:47.977Z,99634.96
2023-07-19T13:54:39.697Z,99627.05
2023-07-19T13:56:31.107Z,99634.14
2023-07-19T13:58:22.838Z,99637.96
2023-07-19T14:00:14.905Z,99641.83
2023-07-19T14:02:06.528Z,99643.02
2023-07-19T14:03:58.012Z,99644.86
2023-07-19T14:05:49.325Z,99637.00
2023-07-19T14:07:40.649Z,99633.41
2023-07-19T14:09:32.020Z,99638.66
2023-07-19T14:11:23.470Z,99636.70
2023-07-19T14:13:28.938Z,99628.16
2023-07-19T14:15:23.848Z,99624.54
2023-07-19T14:17:14.874Z,99626.17
2023-07-19T14:19:06.102Z,99623.91
2023-07-19T14:20:57.164Z,99621.11
2023-07-19T14:22:48.763Z,99624.08
2023-07-19T14:24:41.584Z,99624.88
2023-07-19T14:26:33.192Z,99622.17
2023-07-19T14:28:24.499Z,99617.73
2023-07-19T14:30:16.054Z,99618.67
2023-07-19T14:32:09.324Z,99615.97
2023-07-19T14:34:00.681Z,99613.77
2023-07-19T14:35:52.944Z,99611.95
2023-07-19T14:37:45.734Z,99608.40
2023-07-19T14:39:37.594Z,99600.13
2023-07-19T14:41:30.495Z,99599.92
2023-07-19T14:43:22.567Z,99597.02
2023-07-19T14:45:14.132Z,99596.42
2023-07-19T14:47:06.173Z,99596.75
2023-07-19T14:48:57.787Z,99589.33
2023-07-19T14:50:56.149Z,99586.84
2023-07-19T14:52:51.659Z,99584.74
2023-07-19T14:54:45.168Z,99586.65
2023-07-19T14:56:36.864Z,99583.63
2023-07-19T14:58:28.082Z,99581.45
2023-07-19T15:00:39.504Z,99584.70
2023-07-19T15:02:34.211Z,99581.73
2023-07-19T15:04:26.273Z,99578.27
2023-07-19T15:06:17.676Z,99578.20
2023-07-19T15:08:10.366Z,99574.99
2023-07-19T15:10:03.295Z,99570.70
2023-07-19T15:11:54.542Z,99572.27
2023-07-19T15:13:46.199Z,99572.35
2023-07-19T15:15:37.687Z,99566.83
2023-07-19T15:17:31.579Z,99570.27
2023-07-19T15:19:24.212Z,99567.38
2023-07-19T15:21:15.535Z,99567.10
2023-07-19T15:23:07.204Z,99569.03
2023-07-19T15:24:58.810Z,99569.42
2023-07-19T15:26:50.079Z,99566.15
2023-07-19T15:28:41.222Z,99558.55
2023-07-19T15:30:32.656Z,99553.39
2023-07-19T15:32:24.106Z,99547.25
2023-07-19T15:34:15.560Z,99547.27
2023-07-19T15:36:06.898Z,99553.40
2023-07-19T15:37:58.403Z,99551.63
2023-07-19T15:39:49.359Z,99546.83
2023-07-19T15:41:40.871Z,99547.75
2023-07-19T15:43:32.562Z,99545.09
2023-07-19T15:45:24.683Z,99543.77
2023-07-19T15:47:16.519Z,99547.36
2023-07-19T15:49:07.781Z,99552.52
2023-07-19T15:50:59.712Z,99550.31
2023-07-19T15:52:50.960Z,99554.05
2023-07-19T15:54:42.384Z,99551.11
2023-07-19T15:56:34.080Z,99548.31
2023-07-19T15:58:25.384Z,99551.20
2023-07-19T16:00:17.335Z,99544.91
2023-07-19T16:02:09.655Z,99548.14
2023-07-19T16:04:01.045Z,99542.35
2023-07-19T16:05:52.542Z,99549.52
2023-07-19T16:07:43.671Z,99550.73
2023-07-19T16:09:35.093Z,99549.58
2023-07-19T16:11:26.790Z,99546.17
2023-07-19T16:13:18.431Z,99541.33
2023-07-19T16:15:10.416Z,99541.08
2023-07-19T16:17:01.776Z,99539.16
2023-07-19T16:18:53.391Z,99542.13
2023-07-19T16:20:44.792Z,99541.86
2023-07-19T16:22:36.841Z,99536.29
2023-07-19T16:24:28.254Z,99533.88
2023-07-19T16:26:19.528Z,99534.04
2023-07-19T16:28:10.834Z,99531.46
2023-07-19T16:30:02.667Z,99531.81
2023-07-19T16:31:56.021Z,99527.03
2023-07-19T16:33:48.426Z,99521.52
2023-07-19T16:35:39.605Z,99525.60
2023-07-19T16:37:30.926Z,99526.05
2023-07-19T16:39:22.349Z,99530.70
2023-07-19T16:41:14.026Z,99527.35
2023-07-19T16:43:05.561Z,99527.09
2023-07-19T16:44:57.298Z,99527.03
2023-07-19T16:46:48.586Z,99522.23
2023-07-19T16:48:40.247Z,99525.55
2023-07-19T16:50:32.094Z,99528.19
2023-07-19T16:52:23.275Z,99527.07
2023-07-19T16:54:15.544Z,99532.41
2023-07-19T16:56:07.443Z,99536.64
2023-07-19T16:58:03.677Z,99535.28
2023-07-19T17:00:06.568Z,99537.91
2023-07-19T17:02:02.089Z,99537.23
2023-07-19T17:03:53.902Z,99535.63
2023-07-19T17:05:46.085Z,99541.80
2023-07-19T17:07:37.567Z,99541.89
2023-07-19T17:09:29.365Z,99541.16
2023-07-19T17:11:20.948Z,99543.23
2023-07-19T17:13:12.816Z,99543.38
2023-07-19T17:15:04.316Z,99543.31
2023-07-19T17:17:10.296Z,99544.20
2023-07-19T17:19:15.216Z,99541.38
2023-07-19T17:21:07.946Z,99543.50
2023-07-19T17:23:00.022Z,99538.36
2023-07-19T17:24:51.460Z,99543.25
2023-07-19T17:26:42.770Z,99540.20
2023-07-19T17:28:33.886Z,99541.05
2023-07-19T17:30:25.439Z,99542.14
2023-07-19T17:32:16.962Z,99538.01
2023-07-19T17:34:08.080Z,99536.59
2023-07-19T17:35:59.761Z,99533.98
2023-07-19T17:37:51.529Z,99537.87
2023-07-19T17:39:42.759Z,99539.89
2023-07-19T17:41:34.387Z,99540.48
2023-07-19T17:43:26.423Z,99544.58
2023-07-19T17:45:17.554Z,99543.14
2023-07-19T17:47:08.944Z,99546.19
2023-07-19T17:49:00.596Z,99547.52
2023-07-19T17:50:52.254Z,99549.14
2023-07-19T17:52:45.501Z,99548.64
2023-07-19T17:54:36.940Z,99552.34
2023-07-19T17:56:28.600Z,99552.61
2023-07-19T17:58:20.137Z,99548.57
2023-07-19T18:00:12.323Z,99556.44
2023-07-19T18:02:03.847Z,99560.36
2023-07-19T18:03:56.102Z,99564.60
2023-07-19T18:05:47.729Z,99564.30
2023-07-19T18:07:38.868Z,99568.95
2023-07-19T18:09:30.511Z,99573.40
2023-07-19T18:11:22.214Z,99579.19
2023-07-19T18:13:14.015Z,99581.33
2023-07-19T18:15:07.392Z,99579.31
2023-07-19T18:16:58.870Z,99581.34
2023-07-19T18:18:50.135Z,99580.02
2023-07-19T18:20:41.815Z,99580.38
2023-07-19T18:22:33.664Z,99578.29
2023-07-19T18:24:25.286Z,99580.60
2023-07-19T18:26:17.162Z,99584.32
2023-07-19T18:28:08.937Z,99586.45
2023-07-19T18:30:00.801Z,99585.63
2023-07-19T18:31:52.467Z,99584.25
2023-07-19T18:33:43.458Z,99581.43
2023-07-19T18:35:34.991Z,99580.27
2023-07-19T18:37:26.471Z,99586.27
2023-07-19T18:39:17.645Z,99588.69
2023-07-19T18:41:08.982Z,99589.26
2023-07-19T18:43:00.338Z,99588.23
2023-07-19T18:44:52.010Z,99589.89
2023-07-19T18:46:43.391Z,99586.86
2023-07-19T18:48:34.908Z,99588.65
2023-07-19T18:50:26.370Z,99585.80
2023-07-19T18:52:18.212Z,99590.81
2023-07-19T18:54:09.600Z,99589.51
2023-07-19T18:56:00.706Z,99591.66
2023-07-19T18:57:52.156Z,99589.14
2023-07-19T18:59:43.377Z,99593.54
2023-07-19T19:01:34.925Z,99594.10
2023-07-19T19:03:26.888Z,99595.63
2023-07-19T19:05:18.456Z,99600.80
2023-07-19T19:07:10.171Z,99598.98
2023-07-19T19:09:24.523Z,99605.95
2023-07-19T19:11:15.953Z,99607.86
2023-07-19T19:13:07.465Z,99609.36
2023-07-19T19:14:59.643Z,99608.73
2023-07-19T19:16:51.365Z,99611.92
2023-07-19T19:18:42.628Z,99617.18
2023-07-19T19:20:34.300Z,99619.23
2023-07-19T19:22:26.030Z,99625.57
2023-07-19T19:24:17.457Z,99624.77
2023-07-19T19:26:08.969Z,99621.33
2023-07-19T19:28:00.711Z,99622.49
2023-07-19T19:29:52.028Z,99624.91
2023-07-19T19:31:44.205Z,99622.88
2023-07-19T19:33:35.665Z,99625.77
2023-07-19T19:35:27.013Z,99629.31
2023-07-19T19:37:18.048Z,99632.42
2023-07-19T19:39:19.406Z,99640.53
2023-07-19T19:41:18.676Z,99637.60
2023-07-19T19:43:10.944Z,99635.83
2023-07-19T19:45:06.284Z,99638.86
2023-07-19T19:46:57.661Z,99639.73
2023-07-19T19:48:49.221Z,99641.31
2023-07-19T19:50:41.099Z,99642.80
2023-07-19T19:52:32.696Z,99646.45
2023-07-19T19:54:25.574Z,99646.35
2023-07-19T19:56:18.588Z,99649.34
2023-07-19T19:58:11.264Z,99644.92
2023-07-19T20:00:03.008Z,99646.36
2023-07-19T20:02:37.007Z,99643.98
2023-07-19T20:04:06.913Z,99644.54
2023-07-19T20:05:59.251Z,99639.34
2023-07-19T20:07:54.190Z,99635.45
2023-07-19T20:09:59.731Z,99622.83
2023-07-19T20:11:53.328Z,99620.26
2023-07-19T20:13:44.452Z,99623.88
2023-07-19T20:15:47.264Z,99631.31
2023-07-19T20:17:39.598Z,99636.16
2023-07-19T20:19:33.595Z,99641.12
2023-07-19T20:21:25.286Z,99642.42
2023-07-19T20:23:17.194Z,99648.05
2023-07-19T20:25:20.198Z,99646.61
2023-07-19T20:27:23.488Z,99644.16
2023-07-19T20:31:09.486Z,99637.80
2023-07-19T20:33:00.982Z,99637.30
2023-07-19T20:36:47.330Z,99622.98
2023-07-19T20:42:28.257Z,99612.65
2023-07-19T20:44:21.235Z,99612.88
2023-07-19T20:48:09.200Z,99624.36
2023-07-19T20:50:00.784Z,99625.02
2023-07-19T20:51:52.384Z,99622.89
2023-07-19T20:53:44.065Z,99621.80
2023-07-19T20:55:35.638Z,99615.90
2023-07-19T20:57:27.178Z,99615.96
2023-07-19T20:59:19.930Z,99618.44
2023-07-19T21:01:12.713Z,99619.39
2023-07-19T21:03:04.610Z,99624.99
2023-07-19T21:04:56.229Z,99626.88
2023-07-19T21:06:47.441Z,99626.70
2023-07-19T21:08:39.162Z,99628.15
2023-07-19T21:10:30.675Z,99628.82
2023-07-19T21:12:22.124Z,99637.00
2023-07-19T21:14:13.520Z,99642.71
2023-07-19T21:16:05.660Z,99646.12
2023-07-19T21:17:56.990Z,99639.98
2023-07-19T21:19:48.438Z,99639.02
2023-07-19T21:21:39.783Z,99633.33
2023-07-19T21:23:31.735Z,99628.80
2023-07-19T21:25:23.287Z,99626.72
2023-07-19T21:27:14.536Z,99619.77
2023-07-19T21:29:06.443Z,99620.63
2023-07-19T21:30:57.974Z,99617.00
2023-07-19T21:32:49.662Z,99621.06
2023-07-19T21:34:41.512Z,99632.95
2023-07-19T21:36:33.215Z,99637.08
2023-07-19T21:38:24.435Z,99636.40
2023-07-19T21:40:15.693Z,99634.95
2023-07-19T21:42:07.807Z,99630.59
2023-07-19T21:44:00.300Z,99629.95
2023-07-19T21:45:53.186Z,99636.95
2023-07-19T21:47:44.549Z,99631.79
2023-07-19T21:49:36.299Z,99631.00
2023-07-19T21:51:28.047Z,99634.20
2023-07-19T21:53:19.302Z,99634.70
2023-07-19T21:55:11.179Z,99635.92
2023-07-19T21:57:02.718Z,99638.85
2023-07-19T21:58:54.251Z,99642.11
2023-07-19T22:00:47.277Z,99643.34
2023-07-19T22:02:38.779Z,99649.77
2023-07-19T22:04:31.490Z,99656.65